Time;durP1;ratioP1;P1;durP2;ratioP2;P2;SDS_P1;SDS_P2;PMS_P1;PMS_P2;Temp;Humidity;BMP_temperature;BMP_pressure;BME280_temperature;BME280_humidity;BME280_pressure;Samples;Min_cycle;Max_cycle;Signal;HPM_P1;HPM_P2
2022/06/01 00:01:02;;;;;;;19.58;10.25;;;10.50;99.90;;;;;;5023451;28;20049;-87
2022/06/01 00:03:33;;;;;;;17.25;8.88;;;10.40;99.90;;;;;;5030324;28;20166;-85
2022/06/01 00:05:59;;;;;;;16.95;11.05;;;10.50;99.90;;;;;;5026790;28;20036;-86
2022/06/01 00:08:25;;;;;;;20.25;9.10;;;10.50;99.90;;;;;;5030538;28;20026;-85
2022/06/01 00:10:51;;;;;;;19.88;9.25;;;10.50;99.90;;;;;;5040134;28;20585;-86
2022/06/01 00:13:19;;;;;;;21.35;9.95;;;10.40;99.90;;;;;;5030790;28;20036;-86
2022/06/01 00:15:45;;;;;;;18.38;9.73;;;10.40;99.90;;;;;;5028010;28;20057;-86
2022/06/01 00:18:10;;;;;;;17.08;9.90;;;10.40;99.90;;;;;;5013821;28;20511;-86
2022/06/01 00:20:37;;;;;;;19.50;10.32;;;10.30;99.90;;;;;;5019446;28;20032;-86
2022/06/01 00:23:03;;;;;;;16.33;9.50;;;10.30;99.90;;;;;;5033393;28;20029;-86
2022/06/01 00:25:29;;;;;;;18.25;10.00;;;10.30;99.90;;;;;;5026997;28;20038;-85
2022/06/01 00:27:54;;;;;;;18.67;9.88;;;10.30;99.90;;;;;;5024599;28;20489;-86
2022/06/01 00:30:21;;;;;;;20.05;10.15;;;10.30;99.90;;;;;;5029479;28;20035;-85
2022/06/01 00:32:47;;;;;;;18.83;11.05;;;10.30;99.90;;;;;;5028468;28;20079;-92
2022/06/01 00:35:16;;;;;;;18.88;9.88;;;10.30;99.90;;;;;;5027713;28;20109;-86
2022/06/01 00:37:42;;;;;;;19.70;10.13;;;10.30;99.90;;;;;;5030286;28;20034;-85
2022/06/01 00:40:09;;;;;;;20.73;10.68;;;10.30;99.90;;;;;;5013921;28;20037;-86
2022/06/01 00:42:38;;;;;;;22.20;10.77;;;10.20;99.90;;;;;;5024107;28;20030;-86
2022/06/01 00:45:05;;;;;;;17.67;10.27;;;10.20;99.90;;;;;;5035206;28;20034;-86
2022/06/01 00:47:31;;;;;;;20.52;10.55;;;10.20;99.90;;;;;;5024755;28;20528;-85
2022/06/01 00:50:06;;;;;;;20.77;11.20;;;10.20;99.90;;;;;;5035525;28;20037;-85
2022/06/01 00:52:37;;;;;;;24.70;12.40;;;10.10;99.90;;;;;;5029149;28;20032;-86
2022/06/01 00:55:11;;;;;;;20.85;11.23;;;10.10;99.90;;;;;;5026810;28;20135;-86
2022/06/01 00:57:37;;;;;;;24.02;10.68;;;10.10;99.90;;;;;;5029130;28;20040;-86
2022/06/01 01:00:08;;;;;;;21.27;10.60;;;10.10;99.90;;;;;;5026522;28;20067;-86
2022/06/01 01:02:34;;;;;;;20.35;12.02;;;10.20;99.90;;;;;;5031518;28;20539;-89
2022/06/01 01:05:01;;;;;;;21.58;10.18;;;10.20;99.90;;;;;;5024712;28;20515;-86
2022/06/01 01:07:27;;;;;;;18.98;10.18;;;10.10;99.90;;;;;;5035901;28;20035;-86
2022/06/01 01:09:53;;;;;;;26.45;11.38;;;10.10;99.90;;;;;;5040776;28;20034;-86
2022/06/01 01:12:19;;;;;;;23.35;10.90;;;10.10;99.90;;;;;;5041618;28;20048;-86
2022/06/01 01:14:45;;;;;;;22.05;10.63;;;10.10;99.90;;;;;;5041589;28;20518;-88
2022/06/01 01:17:12;;;;;;;25.00;10.75;;;10.20;99.90;;;;;;5040515;28;20105;-86
2022/06/01 01:19:49;;;;;;;20.85;11.23;;;10.10;99.90;;;;;;5041995;28;20123;-85
2022/06/01 01:22:21;;;;;;;22.13;10.85;;;10.10;99.90;;;;;;5032750;28;20090;-86
2022/06/01 01:25:19;;;;;;;20.38;11.35;;;10.00;99.90;;;;;;5034990;28;20036;-87
2022/06/01 01:27:46;;;;;;;24.63;10.90;;;10.00;99.90;;;;;;5023085;28;20079;-86
2022/06/01 01:30:39;;;;;;;21.20;11.05;;;10.10;99.90;;;;;;5031925;28;20033;-90
2022/06/01 01:33:17;;;;;;;24.35;12.07;;;10.00;99.90;;;;;;5031925;28;20132;-86
2022/06/01 01:35:47;;;;;;;23.85;12.20;;;10.00;99.90;;;;;;5033801;28;20477;-88
2022/06/01 01:38:22;;;;;;;22.55;12.20;;;10.10;99.90;;;;;;5036993;28;20091;-87
2022/06/01 01:41:07;;;;;;;24.60;11.85;;;10.10;99.90;;;;;;5037136;28;20025;-87
2022/06/01 01:43:48;;;;;;;24.05;12.38;;;10.10;99.90;;;;;;5043761;28;20031;-88
2022/06/01 01:46:14;;;;;;;;;;;10.00;99.90;;;;;;5036953;28;20029;-87
2022/06/01 01:48:40;;;;;;;25.42;13.60;;;10.00;99.90;;;;;;5044495;28;19908;-86
2022/06/01 01:51:06;;;;;;;39.90;12.93;;;10.10;99.90;;;;;;5035678;28;20477;-88
2022/06/01 01:53:32;;;;;;;24.17;12.88;;;10.00;99.90;;;;;;5035850;28;20101;-88
2022/06/01 01:56:38;;;;;;;29.55;13.27;;;10.10;99.90;;;;;;5034084;28;20155;-87
2022/06/01 01:59:28;;;;;;;23.30;13.18;;;10.00;99.90;;;;;;5031504;28;20037;-86
2022/06/01 02:01:58;;;;;;;29.20;12.95;;;10.00;99.90;;;;;;5059414;28;20088;-86
2022/06/01 02:07:33;;;;;;;32.42;13.73;;;9.90;99.90;;;;;;5040498;28;20036;-86
2022/06/01 02:12:44;;;;;;;31.10;13.57;;;9.90;99.90;;;;;;5035872;28;20076;-86
2022/06/01 02:15:28;;;;;;;31.20;14.43;;;9.90;99.90;;;;;;5043585;28;20120;-86
2022/06/01 02:18:01;;;;;;;29.00;13.65;;;9.90;99.90;;;;;;5037000;28;20037;-85
2022/06/01 02:20:35;;;;;;;28.48;13.38;;;9.80;99.90;;;;;;5039466;28;20022;-86
2022/06/01 02:23:01;;;;;;;29.48;13.88;;;9.90;99.90;;;;;;5037265;28;20040;-86
2022/06/01 02:25:29;;;;;;;26.08;13.48;;;9.90;99.90;;;;;;5031144;28;20034;-93
2022/06/01 02:27:57;;;;;;;27.08;13.73;;;10.00;99.90;;;;;;5024773;28;20052;-86
2022/06/01 02:30:29;;;;;;;29.17;14.23;;;10.00;99.90;;;;;;5036499;28;20475;-86
2022/06/01 02:32:57;;;;;;;29.35;13.55;;;10.00;99.90;;;;;;5016011;28;20047;-86
2022/06/01 02:35:24;;;;;;;23.65;12.45;;;10.00;99.90;;;;;;5028825;28;20476;-89
2022/06/01 02:37:54;;;;;;;29.95;13.32;;;10.00;99.90;;;;;;5037902;28;20041;-86
2022/06/01 02:40:23;;;;;;;27.55;12.35;;;10.10;99.90;;;;;;5047169;28;20049;-87
2022/06/01 02:42:50;;;;;;;32.20;13.07;;;10.10;99.90;;;;;;5028378;28;20040;-87
2022/06/01 02:45:18;;;;;;;30.58;12.65;;;10.00;99.90;;;;;;5033134;28;20021;-87
2022/06/01 02:47:45;;;;;;;30.52;14.40;;;9.90;99.90;;;;;;5038835;28;20526;-86
2022/06/01 02:50:16;;;;;;;27.40;12.38;;;9.90;99.90;;;;;;5030940;28;20038;-86
2022/06/01 02:52:42;;;;;;;27.35;13.50;;;9.90;99.90;;;;;;5025993;28;20029;-86
2022/06/01 02:55:09;;;;;;;28.38;12.73;;;9.90;99.90;;;;;;5050371;28;20033;-86
2022/06/01 02:57:37;;;;;;;26.40;13.90;;;9.90;99.90;;;;;;5028263;28;20033;-87
2022/06/01 03:00:07;;;;;;;29.55;13.82;;;9.80;99.90;;;;;;5029079;28;20061;-87
2022/06/01 03:02:34;;;;;;;37.05;15.52;;;9.80;99.90;;;;;;5032012;28;20081;-87
2022/06/01 03:05:00;;;;;;;26.90;12.68;;;9.80;99.90;;;;;;5042628;28;20029;-86
2022/06/01 03:07:25;;;;;;;24.63;12.55;;;9.90;99.90;;;;;;5018471;28;20022;-87
2022/06/01 03:09:51;;;;;;;26.48;13.32;;;9.90;99.90;;;;;;5020287;28;20037;-87
2022/06/01 03:12:17;;;;;;;28.25;15.10;;;9.90;99.90;;;;;;5002697;28;20397;-86
2022/06/01 03:14:42;;;;;;;22.23;12.77;;;9.90;99.90;;;;;;5036259;28;20060;-87
2022/06/01 03:17:08;;;;;;;26.58;12.82;;;9.80;99.90;;;;;;5031160;28;20034;-91
2022/06/01 03:19:34;;;;;;;29.83;14.55;;;9.80;99.90;;;;;;5036753;28;20045;-87
2022/06/01 03:22:01;;;;;;;23.98;13.48;;;9.80;99.90;;;;;;5033245;28;20239;-87
2022/06/01 03:24:26;;;;;;;29.83;14.40;;;9.80;99.90;;;;;;5031688;28;20616;-87
2022/06/01 03:26:52;;;;;;;28.27;14.73;;;9.90;99.90;;;;;;5033152;28;20039;-87
2022/06/01 03:29:18;;;;;;;26.83;13.63;;;9.90;99.90;;;;;;5046266;28;20488;-89
2022/06/01 03:31:44;;;;;;;29.52;14.90;;;9.90;99.90;;;;;;5016796;28;20493;-87
2022/06/01 03:34:10;;;;;;;34.65;15.43;;;9.90;99.90;;;;;;5028382;28;20463;-86
2022/06/01 03:36:36;;;;;;;31.75;13.80;;;9.90;99.90;;;;;;5032459;28;20041;-86
2022/06/01 03:39:02;;;;;;;35.70;15.32;;;9.90;99.90;;;;;;5040298;28;20113;-86
2022/06/01 03:41:28;;;;;;;32.38;16.38;;;9.90;99.90;;;;;;5039902;28;20041;-91
2022/06/01 03:46:38;;;;;;;30.70;15.65;;;9.90;99.90;;;;;;5039857;28;20167;-86
2022/06/01 03:49:04;;;;;;;31.10;14.90;;;9.80;99.90;;;;;;5038367;28;20120;-86
2022/06/01 03:51:30;;;;;;;38.95;14.23;;;9.90;99.90;;;;;;5038180;28;20041;-87
2022/06/01 03:53:56;;;;;;;27.52;14.40;;;9.90;99.90;;;;;;5033395;28;20493;-87
2022/06/01 03:56:22;;;;;;;29.95;14.35;;;10.00;99.90;;;;;;5035446;28;20032;-87
2022/06/01 03:58:52;;;;;;;30.63;14.75;;;10.00;99.90;;;;;;5015070;28;20056;-86
2022/06/01 04:01:19;;;;;;;26.87;14.37;;;10.00;99.90;;;;;;5028141;28;20037;-88
2022/06/01 04:03:45;;;;;;;31.95;14.48;;;10.10;99.90;;;;;;5026604;28;20037;-86
2022/06/01 04:06:11;;;;;;;27.83;14.30;;;10.10;99.90;;;;;;5027853;28;20448;-87
2022/06/01 04:08:36;;;;;;;27.20;13.73;;;10.20;99.90;;;;;;5039513;28;20040;-86
2022/06/01 04:11:02;;;;;;;35.20;14.73;;;10.20;99.90;;;;;;5040858;28;20492;-87
2022/06/01 04:13:29;;;;;;;31.38;14.70;;;10.20;99.90;;;;;;5033571;28;20033;-88
2022/06/01 04:15:55;;;;;;;29.38;15.52;;;10.20;99.90;;;;;;5037725;28;20216;-88
2022/06/01 04:18:21;;;;;;;29.60;14.35;;;10.20;99.90;;;;;;5032412;28;20030;-87
2022/06/01 04:20:51;;;;;;;32.58;15.77;;;10.20;99.90;;;;;;5033965;28;20071;-87
2022/06/01 04:23:17;;;;;;;25.40;14.27;;;10.10;99.90;;;;;;5015957;28;20029;-93
2022/06/01 04:25:42;;;;;;;26.25;14.70;;;10.20;99.90;;;;;;5028697;28;20060;-84
2022/06/01 04:28:08;;;;;;;32.28;15.95;;;10.10;99.90;;;;;;5027292;28;20036;-86
2022/06/01 04:30:34;;;;;;;29.58;14.85;;;10.30;99.90;;;;;;5030501;28;20795;-86
2022/06/01 04:33:02;;;;;;;29.55;15.50;;;10.30;99.90;;;;;;5046475;28;20083;-86
2022/06/01 04:35:27;;;;;;;28.65;14.68;;;10.50;99.90;;;;;;5040570;28;20496;-87
2022/06/01 04:37:53;;;;;;;31.58;16.30;;;10.60;99.90;;;;;;5038628;28;20064;-86
2022/06/01 04:40:23;;;;;;;28.45;15.10;;;10.60;99.90;;;;;;5030431;28;20036;-95
2022/06/01 04:42:49;;;;;;;29.08;16.00;;;10.70;99.90;;;;;;5028896;28;20501;-87
2022/06/01 04:45:15;;;;;;;34.05;16.23;;;10.80;99.90;;;;;;5024939;28;20052;-86
2022/06/01 04:47:41;;;;;;;31.42;15.82;;;10.90;99.90;;;;;;5033151;28;20036;-88
2022/06/01 04:50:09;;;;;;;33.97;16.60;;;11.00;99.90;;;;;;5034824;28;20366;-87
2022/06/01 04:52:35;;;;;;;23.88;13.95;;;11.00;99.90;;;;;;5014863;28;20045;-87
2022/06/01 04:55:01;;;;;;;30.75;15.43;;;11.10;99.90;;;;;;5031439;28;20119;-86
2022/06/01 04:57:27;;;;;;;30.45;15.60;;;11.10;99.90;;;;;;5026905;28;20044;-88
2022/06/01 04:59:53;;;;;;;32.70;15.45;;;11.20;99.90;;;;;;5022149;28;20144;-87
2022/06/01 05:02:18;;;;;;;30.48;15.93;;;11.30;99.90;;;;;;5011073;28;20786;-87
2022/06/01 05:04:44;;;;;;;28.52;15.18;;;11.50;99.90;;;;;;5026168;28;20516;-88
2022/06/01 05:07:10;;;;;;;26.42;14.43;;;11.60;99.90;;;;;;5027519;28;20025;-93
2022/06/01 05:09:35;;;;;;;32.47;14.77;;;11.60;99.90;;;;;;5012063;28;20500;-84
2022/06/01 05:12:02;;;;;;;24.70;13.75;;;11.70;99.90;;;;;;5035586;28;20041;-88
2022/06/01 05:14:27;;;;;;;32.58;16.58;;;11.60;99.90;;;;;;5034294;28;20075;-78
2022/06/01 05:16:58;;;;;;;29.13;15.52;;;11.50;99.90;;;;;;5017924;28;20038;-76
2022/06/01 05:19:24;;;;;;;21.52;12.90;;;11.50;99.90;;;;;;5033504;28;20028;-76
2022/06/01 05:21:49;;;;;;;37.95;14.98;;;11.60;99.90;;;;;;5033854;28;20041;-76
2022/06/01 05:24:15;;;;;;;25.55;14.52;;;11.80;99.90;;;;;;5030934;28;20036;-77
2022/06/01 05:26:40;;;;;;;28.58;14.88;;;11.90;99.90;;;;;;5013500;28;20029;-76
2022/06/01 05:29:06;;;;;;;26.60;14.40;;;12.00;99.90;;;;;;5027611;28;20033;-76
2022/06/01 05:31:32;;;;;;;24.08;14.38;;;12.00;99.90;;;;;;5033381;28;20033;-76
2022/06/01 05:33:57;;;;;;;25.45;13.68;;;12.00;99.90;;;;;;5026582;28;20413;-78
2022/06/01 05:36:23;;;;;;;33.53;13.57;;;12.00;99.90;;;;;;5037532;28;20539;-76
2022/06/01 05:38:49;;;;;;;25.13;14.35;;;12.00;99.90;;;;;;5035282;28;20500;-77
2022/06/01 05:41:15;;;;;;;30.63;14.68;;;12.10;99.90;;;;;;5046220;28;20108;-76
2022/06/01 05:43:41;;;;;;;26.83;13.73;;;12.10;99.90;;;;;;5037870;28;20025;-78
2022/06/01 05:46:07;;;;;;;27.05;13.82;;;12.10;99.90;;;;;;5033992;28;20029;-77
2022/06/01 05:48:32;;;;;;;25.48;13.98;;;12.10;99.90;;;;;;5040863;28;20041;-76
2022/06/01 05:50:59;;;;;;;26.27;14.45;;;12.20;99.90;;;;;;5037092;28;20092;-77
2022/06/01 05:53:25;;;;;;;22.80;13.32;;;12.30;99.90;;;;;;5040355;28;20044;-77
2022/06/01 05:55:50;;;;;;;25.02;13.82;;;12.20;99.90;;;;;;5032364;28;20026;-85
2022/06/01 05:58:22;;;;;;;23.38;13.80;;;12.50;99.90;;;;;;5033099;28;20061;-81
2022/06/01 06:00:49;;;;;;;23.83;12.90;;;12.70;99.90;;;;;;5023277;28;20041;-82
2022/06/01 06:03:16;;;;;;;24.95;13.63;;;12.80;99.90;;;;;;5024645;28;20037;-82
2022/06/01 06:08:26;;;;;;;16.83;10.43;;;13.10;99.90;;;;;;5043534;28;20032;-82
2022/06/01 06:10:52;;;;;;;17.65;11.10;;;13.20;99.90;;;;;;5037814;28;20025;-82
2022/06/01 06:13:18;;;;;;;14.25;9.93;;;13.30;99.90;;;;;;5022325;28;20029;-81
2022/06/01 06:15:44;;;;;;;18.60;11.30;;;13.30;99.90;;;;;;5038930;28;20044;-82
2022/06/01 06:18:14;;;;;;;15.77;10.90;;;13.30;99.90;;;;;;5040529;28;20021;-81
2022/06/01 06:20:44;;;;;;;15.50;9.30;;;13.30;99.90;;;;;;5035375;28;20037;-82
2022/06/01 06:23:11;;;;;;;15.40;9.03;;;13.30;99.90;;;;;;5037247;28;20283;-81
2022/06/01 06:25:38;;;;;;;14.13;9.77;;;13.30;99.90;;;;;;5030311;28;20775;-81
2022/06/01 06:28:04;;;;;;;12.57;8.77;;;13.40;99.90;;;;;;5029170;28;20029;-81
2022/06/01 06:30:30;;;;;;;16.52;8.75;;;13.20;99.90;;;;;;5028375;28;20040;-81
2022/06/01 06:32:55;;;;;;;12.15;8.25;;;13.10;99.90;;;;;;5029034;28;20030;-81
2022/06/01 06:35:21;;;;;;;16.20;9.48;;;13.20;99.90;;;;;;5040113;28;20126;-81
2022/06/01 06:37:47;;;;;;;17.60;9.93;;;13.30;99.90;;;;;;5041009;28;20094;-80
2022/06/01 06:40:13;;;;;;;15.05;9.48;;;13.30;99.90;;;;;;5039988;28;20025;-82
2022/06/01 06:42:38;;;;;;;12.63;9.10;;;13.30;99.90;;;;;;5038881;28;20021;-81
2022/06/01 06:45:06;;;;;;;12.30;8.55;;;13.30;99.90;;;;;;5037283;28;20025;-81
2022/06/01 06:47:32;;;;;;;11.70;8.45;;;13.30;99.90;;;;;;5037217;28;20115;-81
2022/06/01 06:49:59;;;;;;;12.85;8.73;;;13.40;99.90;;;;;;5033845;28;20026;-81
2022/06/01 06:52:25;;;;;;;11.93;9.50;;;13.40;99.90;;;;;;5035854;28;20049;-80
2022/06/01 06:54:50;;;;;;;22.05;9.90;;;13.60;99.90;;;;;;5034655;28;20577;-81
2022/06/01 06:57:16;;;;;;;11.65;8.18;;;13.80;99.90;;;;;;5035130;28;20120;-81
2022/06/01 06:59:41;;;;;;;16.13;8.57;;;13.60;99.90;;;;;;5030063;28;20483;-81
2022/06/01 07:02:07;;;;;;;12.13;8.48;;;13.50;99.90;;;;;;5009836;28;20595;-82
2022/06/01 07:04:35;;;;;;;11.43;7.93;;;13.60;99.90;;;;;;5032017;28;20029;-81
2022/06/01 07:07:01;;;;;;;13.80;7.68;;;13.70;99.90;;;;;;5040254;28;20047;-81
2022/06/01 07:09:26;;;;;;;10.45;7.50;;;14.00;99.90;;;;;;5040751;28;20485;-81
2022/06/01 07:11:52;;;;;;;12.55;8.95;;;14.20;99.90;;;;;;5042920;28;20048;-81
2022/06/01 07:14:18;;;;;;;9.20;6.30;;;14.40;99.90;;;;;;5034597;28;20028;-80
2022/06/01 07:16:44;;;;;;;12.52;6.03;;;14.50;99.90;;;;;;5033331;28;20417;-80
2022/06/01 07:19:09;;;;;;;10.75;5.85;;;14.20;99.90;;;;;;5049729;28;20120;-80
2022/06/01 07:21:39;;;;;;;9.43;6.25;;;14.20;99.90;;;;;;5034448;28;20080;-81
2022/06/01 07:24:05;;;;;;;11.43;6.75;;;14.30;99.90;;;;;;5034528;28;20026;-79
2022/06/01 07:26:34;;;;;;;8.48;5.57;;;14.20;99.90;;;;;;5029111;28;20043;-80
2022/06/01 07:29:00;;;;;;;11.77;6.80;;;14.30;99.90;;;;;;5030486;28;20112;-80
2022/06/01 07:31:26;;;;;;;7.88;5.70;;;14.40;99.90;;;;;;5006930;28;20045;-81
2022/06/01 07:33:52;;;;;;;11.98;6.20;;;14.50;99.90;;;;;;5032789;28;20048;-80
2022/06/01 07:36:18;;;;;;;8.57;5.93;;;14.70;99.90;;;;;;5042582;28;20391;-80
2022/06/01 07:44:22;;;;;;;8.90;5.28;;;15.20;99.90;;;;;;5038649;28;20029;-81
2022/06/01 07:46:49;;;;;;;8.82;6.15;;;15.30;99.90;;;;;;5037152;28;20025;-81
2022/06/01 07:49:15;;;;;;;7.70;5.63;;;15.70;99.90;;;;;;5037277;28;20535;-81
2022/06/01 07:51:42;;;;;;;7.53;5.82;;;15.70;99.90;;;;;;5033214;28;20084;-80
2022/06/01 07:54:08;;;;;;;8.05;5.40;;;15.90;99.90;;;;;;5025174;28;20588;-81
2022/06/01 07:56:34;;;;;;;8.75;6.13;;;16.20;99.90;;;;;;5027983;28;20476;-81
2022/06/01 07:59:00;;;;;;;8.88;5.68;;;16.50;99.90;;;;;;5032390;28;20128;-80
2022/06/01 08:01:26;;;;;;;6.43;5.10;;;16.30;99.90;;;;;;5032697;28;20180;-81
2022/06/01 08:03:56;;;;;;;8.93;5.70;;;16.50;99.90;;;;;;5018573;28;20452;-81
2022/06/01 08:06:22;;;;;;;10.23;6.40;;;16.80;99.90;;;;;;5041083;28;20037;-80
2022/06/01 08:08:48;;;;;;;6.15;4.63;;;16.80;99.90;;;;;;5032615;28;20514;-81
2022/06/01 08:11:15;;;;;;;11.40;5.25;;;16.50;99.90;;;;;;5023253;28;20399;-80
2022/06/01 08:13:42;;;;;;;8.82;4.63;;;16.10;99.90;;;;;;5041042;28;20610;-80
2022/06/01 08:16:08;;;;;;;9.45;5.38;;;16.40;99.90;;;;;;5022284;28;20065;-80
2022/06/01 08:18:34;;;;;;;6.95;4.32;;;16.40;99.90;;;;;;5027375;28;20103;-81
2022/06/01 08:21:00;;;;;;;5.68;4.30;;;16.60;99.90;;;;;;5018654;28;20511;-80
2022/06/01 08:23:31;;;;;;;7.90;4.43;;;16.60;99.90;;;;;;5027048;28;20550;-80
2022/06/01 08:25:56;;;;;;;8.32;4.90;;;16.60;99.90;;;;;;5026999;28;20056;-81
2022/06/01 08:28:23;;;;;;;6.97;3.95;;;16.90;99.90;;;;;;5029373;28;20034;-80
2022/06/01 08:30:49;;;;;;;5.10;4.28;;;17.20;99.90;;;;;;5021700;28;20083;-81
2022/06/01 08:33:16;;;;;;;6.75;4.32;;;17.50;99.90;;;;;;5023167;28;20030;-80
2022/06/01 08:35:46;;;;;;;7.20;4.50;;;17.90;99.90;;;;;;5034756;28;20420;-80
2022/06/01 08:38:12;;;;;;;7.93;4.65;;;17.90;99.00;;;;;;5043574;28;20095;-80
2022/06/01 08:40:58;;;;;;;6.45;4.65;;;18.30;99.90;;;;;;5022259;28;20041;-81
2022/06/01 08:43:29;;;;;;;6.03;3.60;;;18.90;99.90;;;;;;5062905;28;20116;-80
2022/06/01 08:46:00;;;;;;;5.45;3.92;;;19.30;93.10;;;;;;5032331;28;20116;-80
2022/06/01 08:48:40;;;;;;;5.47;3.65;;;19.70;87.60;;;;;;5033271;28;20021;-81
2022/06/01 08:51:07;;;;;;;6.20;4.15;;;19.30;87.20;;;;;;5035251;28;20026;-79
2022/06/01 08:53:34;;;;;;;5.78;4.07;;;19.70;90.10;;;;;;5033205;28;20523;-79
2022/06/01 08:56:10;;;;;;;6.63;4.75;;;19.60;87.40;;;;;;5030142;28;20061;-81
2022/06/01 08:58:57;;;;;;;8.20;4.25;;;19.60;79.20;;;;;;5031783;28;20337;-80
2022/06/01 09:01:35;;;;;;;8.40;4.55;;;19.60;82.10;;;;;;5027069;28;20060;-80
2022/06/01 09:04:10;;;;;;;5.47;4.22;;;19.90;83.90;;;;;;5030065;28;20049;-81
2022/06/01 09:06:41;;;;;;;7.30;4.20;;;20.20;75.50;;;;;;5038720;28;20034;-81
2022/06/01 09:09:15;;;;;;;6.38;4.05;;;20.00;76.10;;;;;;5041946;28;20140;-80
2022/06/01 09:11:44;;;;;;;7.20;3.88;;;20.20;74.90;;;;;;5037693;28;20021;-81
2022/06/01 09:14:34;;;;;;;8.73;4.20;;;20.10;71.30;;;;;;5039478;28;20233;-80
2022/06/01 09:17:01;;;;;;;7.93;4.40;;;20.00;69.50;;;;;;5038457;28;20574;-80
2022/06/01 09:25:01;;;;;;;5.10;4.30;;;19.80;71.50;;;;;;5027877;28;20499;-80
2022/06/01 09:27:38;;;;;;;8.93;4.65;;;20.10;72.70;;;;;;5032658;28;20081;-80
2022/06/01 09:30:19;;;;;;;6.57;4.53;;;20.00;68.50;;;;;;5032358;28;20036;-81
2022/06/01 09:33:23;;;;;;;8.55;4.80;;;20.00;67.40;;;;;;5032506;28;20045;-81
2022/06/01 09:36:06;;;;;;;7.63;4.80;;;20.00;69.10;;;;;;5042444;28;20037;-81
2022/06/01 09:38:48;;;;;;;9.05;4.85;;;20.10;68.20;;;;;;5037175;28;20649;-80
2022/06/01 09:41:36;;;;;;;10.93;4.40;;;20.50;75.10;;;;;;5043070;28;20033;-80
2022/06/01 09:44:17;;;;;;;8.75;4.70;;;20.70;66.40;;;;;;5033684;28;20328;-81
2022/06/01 09:47:00;;;;;;;7.70;5.05;;;20.70;70.30;;;;;;5039607;28;20500;-81
2022/06/01 09:49:32;;;;;;;5.18;4.25;;;21.10;66.10;;;;;;5035717;28;20548;-80
2022/06/01 09:52:07;;;;;;;6.53;4.63;;;22.20;61.40;;;;;;5037788;28;20151;-80
2022/06/01 09:54:38;;;;;;;9.18;5.03;;;21.80;56.40;;;;;;5033560;28;20029;-81
2022/06/01 09:57:38;;;;;;;15.68;5.80;;;21.70;55.10;;;;;;5031672;28;20507;-82
2022/06/01 10:06:30;;;;;;;10.35;4.53;;;21.20;51.50;;;;;;5024775;28;20648;-81
2022/06/01 10:09:02;;;;;;;5.30;4.63;;;20.70;53.40;;;;;;5019587;28;20053;-81
2022/06/01 10:11:49;;;;;;;8.77;5.00;;;21.10;54.60;;;;;;5016297;28;20036;-82
2022/06/01 10:14:22;;;;;;;9.93;5.30;;;21.90;54.20;;;;;;5002411;28;20040;-81
2022/06/01 10:17:09;;;;;;;21.73;13.15;;;21.90;52.00;;;;;;5009637;28;20034;-81
2022/06/01 10:19:49;;;;;;;8.73;5.50;;;21.70;53.30;;;;;;5006318;28;20121;-81
2022/06/01 10:22:21;;;;;;;12.60;6.28;;;21.50;55.10;;;;;;5001600;28;20109;-81
2022/06/01 10:25:05;;;;;;;12.57;5.35;;;21.60;52.10;;;;;;5023304;28;20091;-81
2022/06/01 10:27:38;;;;;;;8.65;5.35;;;22.40;53.00;;;;;;5007590;28;20073;-81
2022/06/01 10:30:22;;;;;;;11.88;5.28;;;22.40;48.70;;;;;;5008831;28;20109;-80
2022/06/01 10:32:54;;;;;;;8.13;5.13;;;22.70;49.00;;;;;;5001754;28;20076;-82
2022/06/01 10:35:47;;;;;;;8.10;5.93;;;22.70;48.70;;;;;;5020131;28;20039;-83
2022/06/01 10:38:41;;;;;;;14.10;6.07;;;23.30;55.60;;;;;;5014517;28;20049;-82
2022/06/01 10:41:15;;;;;;;9.90;5.95;;;23.00;51.50;;;;;;5019107;28;20034;-81
2022/06/01 10:43:46;;;;;;;8.05;6.20;;;22.80;52.30;;;;;;5015461;28;20053;-82
2022/06/01 10:46:23;;;;;;;11.18;5.85;;;22.50;52.20;;;;;;5015824;28;20057;-81
2022/06/01 10:49:08;;;;;;;9.88;6.03;;;22.60;53.60;;;;;;5030983;28;20497;-81
2022/06/01 10:51:35;;;;;;;8.65;5.90;;;23.00;53.20;;;;;;5007446;28;20073;-81
2022/06/01 10:54:17;;;;;;;9.95;6.10;;;22.90;49.60;;;;;;5015826;28;20033;-80
2022/06/01 10:56:43;;;;;;;9.43;5.97;;;23.20;48.60;;;;;;5013204;28;20036;-82
2022/06/01 10:59:12;;;;;;;12.85;6.93;;;23.20;48.60;;;;;;5019453;28;20045;-87
2022/06/01 11:01:41;;;;;;;7.30;6.05;;;23.40;47.80;;;;;;5033439;28;20247;-80
2022/06/01 11:04:21;;;;;;;8.93;6.35;;;23.70;47.10;;;;;;5043459;28;20025;-79
2022/06/01 11:07:24;;;;;;;8.93;6.50;;;23.10;46.50;;;;;;5040050;28;20034;-81
2022/06/01 11:10:04;;;;;;;9.00;5.93;;;23.50;49.30;;;;;;5044628;28;20025;-81
2022/06/01 11:12:30;;;;;;;;;;;22.90;46.80;;;;;;5033771;28;20104;-81
2022/06/01 11:15:24;;;;;;;14.25;7.47;;;22.80;51.70;;;;;;5035112;28;20005;-81
2022/06/01 11:18:03;;;;;;;13.88;6.95;;;22.10;50.40;;;;;;5066510;28;20473;-85
2022/06/01 11:20:40;;;;;;;12.95;7.22;;;21.60;48.80;;;;;;5029641;28;20021;-81
2022/06/01 11:23:24;;;;;;;10.88;6.63;;;21.90;50.20;;;;;;5030865;28;20034;-81
2022/06/01 11:25:56;;;;;;;14.98;7.55;;;21.30;50.30;;;;;;5033084;28;20029;-82
2022/06/01 11:28:44;;;;;;;10.07;7.03;;;21.60;51.00;;;;;;5031891;28;20566;-80
2022/06/01 11:31:25;;;;;;;11.43;7.10;;;21.90;52.70;;;;;;5028912;28;20057;-82
2022/06/01 11:34:13;;;;;;;15.02;7.18;;;21.80;49.70;;;;;;5032954;28;20033;-81
2022/06/01 11:37:00;;;;;;;12.07;7.20;;;21.70;48.00;;;;;;5039536;28;20024;-82
2022/06/01 11:39:37;;;;;;;9.93;7.35;;;21.90;49.00;;;;;;5038271;28;20492;-81
2022/06/01 11:42:15;;;;;;;12.50;6.95;;;21.50;51.00;;;;;;5039751;28;20067;-85
2022/06/01 11:44:51;;;;;;;11.45;7.25;;;21.40;50.40;;;;;;5032272;28;20080;-81
2022/06/01 11:47:19;;;;;;;10.68;7.90;;;21.30;53.00;;;;;;5025145;28;20017;-82
2022/06/01 11:50:00;;;;;;;14.35;8.85;;;21.40;53.50;;;;;;5034493;28;20377;-82
2022/06/01 11:52:31;;;;;;;13.63;8.27;;;21.30;52.70;;;;;;5033693;28;20572;-82
2022/06/01 11:55:29;;;;;;;11.55;7.38;;;21.40;51.90;;;;;;5029831;28;20033;-82
2022/06/01 11:58:07;;;;;;;16.42;7.13;;;21.20;54.90;;;;;;5025321;28;20084;-81
2022/06/01 12:00:57;;;;;;;14.45;8.10;;;21.20;54.20;;;;;;5021572;28;20042;-80
2022/06/01 12:03:24;;;;;;;11.00;7.03;;;21.10;53.90;;;;;;5033464;28;20134;-81
2022/06/01 12:06:11;;;;;;;9.65;7.20;;;20.80;52.60;;;;;;5042416;28;20049;-80
2022/06/01 12:09:00;;;;;;;15.38;7.38;;;20.80;56.10;;;;;;5037256;28;20108;-81
2022/06/01 12:11:39;;;;;;;10.10;7.10;;;21.00;55.00;;;;;;5035836;28;20028;-80
2022/06/01 12:14:19;;;;;;;14.82;7.82;;;21.40;55.50;;;;;;5037216;28;20029;-81
2022/06/01 12:16:45;;;;;;;8.70;6.78;;;20.90;53.50;;;;;;5032142;28;20026;-81
2022/06/01 12:19:32;;;;;;;14.55;7.30;;;21.10;54.90;;;;;;5034471;28;20044;-80
2022/06/01 12:22:03;;;;;;;10.02;7.68;;;21.30;53.30;;;;;;5041525;28;20041;-81
2022/06/01 12:30:11;;;;;;;13.38;6.82;;;21.40;54.30;;;;;;5031335;28;20041;-81
2022/06/01 12:32:59;;;;;;;14.93;8.18;;;20.90;57.50;;;;;;5024673;28;20509;-81
2022/06/01 12:35:47;;;;;;;9.65;6.63;;;20.70;55.50;;;;;;5038546;28;20048;-82
2022/06/01 12:38:33;;;;;;;7.85;6.22;;;20.20;56.50;;;;;;5037285;28;20037;-80
2022/06/01 12:41:17;;;;;;;11.15;6.80;;;20.10;57.20;;;;;;5033761;28;20090;-81
2022/06/01 12:43:51;;;;;;;9.27;7.00;;;19.90;61.40;;;;;;5034903;28;20115;-81
2022/06/01 12:46:29;;;;;;;14.48;7.38;;;19.60;60.70;;;;;;5037360;28;20141;-80
2022/06/01 12:49:19;;;;;;;11.52;7.13;;;19.50;59.70;;;;;;5048022;28;20078;-82
2022/06/01 12:51:45;;;;;;;;;;;19.60;63.90;;;;;;5031898;28;20029;-82
2022/06/01 12:54:10;;;;;;;8.93;6.47;;;19.50;60.70;;;;;;5027983;28;20380;-83
2022/06/01 12:56:47;;;;;;;12.63;7.38;;;19.90;60.60;;;;;;5032237;28;20045;-82
2022/06/01 12:59:17;;;;;;;11.82;7.57;;;20.10;60.70;;;;;;5028809;28;20046;-82
2022/06/01 13:01:42;;;;;;;20.40;6.82;;;20.30;57.30;;;;;;5023967;28;20394;-90
2022/06/01 13:04:08;;;;;;;8.98;6.88;;;20.60;58.10;;;;;;5035607;28;20048;-82
2022/06/01 13:06:43;;;;;;;10.30;7.47;;;20.50;58.60;;;;;;5039047;28;20120;-83
2022/06/01 13:09:12;;;;;;;10.07;7.78;;;20.20;61.90;;;;;;5040368;28;20047;-82
2022/06/01 13:11:39;;;;;;;16.23;7.20;;;20.00;60.80;;;;;;5031549;28;20026;-83
2022/06/01 13:14:09;;;;;;;9.32;7.53;;;19.80;68.60;;;;;;5019803;28;20033;-83
2022/06/01 13:16:38;;;;;;;;;;;19.60;65.00;;;;;;5037013;28;20030;-82
2022/06/01 13:19:24;;;;;;;10.40;6.43;;;19.60;67.20;;;;;;5034251;28;19917;-85
2022/06/01 13:22:19;;;;;;;9.85;7.25;;;19.40;69.00;;;;;;5032167;28;20022;-85
2022/06/01 13:24:48;;;;;;;12.68;7.55;;;19.20;69.70;;;;;;5041813;28;20873;-86
2022/06/01 13:27:14;;;;;;;14.57;7.78;;;19.00;66.80;;;;;;5033848;28;20609;-84
2022/06/01 13:29:46;;;;;;;18.05;8.27;;;19.20;66.00;;;;;;5029877;28;20496;-84
2022/06/01 13:32:13;;;;;;;12.05;8.20;;;19.30;67.40;;;;;;5015835;28;20323;-84